Decoded Metar for OING (GORGAN in IRAN) (IATA:N/A) | Meteo·Mobile Aviation Weather
aviador You're here:

OING Decoded Metar

GORGAN in IRAN
Report Time2019-01-16 17:00:00
UTC Time2019-01-16 18:00:50
Flight Rules vfr VFR
Wind150° at 04 kt
W.Decomp.*RWY 13: 3.8 kt HW 1.2 kt RCW
W.Rank150° ranks 17
Current wind is below 150° avg. (6.2)
Visibility9999 m
Phenomena:N/A
Clouds:N/A
Expected CloudBase > 2,000 ft AGL from Temp-Dew spread
CeilingNone
Temp08°C (ISA -6)
Dew Point03°C (71% RH)
AAT5.1°C
QNH1007 hPa
Density Alt102 ft
Elevation509 ft
Report Wrong Elevation
Raw Report
METAR OING 161700Z 15004KT CAVOK 08/03 Q1007=

Extra information for OING:More info

Metar Taf Metar & Taf Last 4 Metars F.Rules Stats Wind Profile Meteogram Temp Stats Airport Information Weather charts Add Link Nearby VenuesMetar ALERT Operation Metar Decoded Social comments